sensor_id;sensor_type;location;lat;lon;timestamp;temperature;humidity
5938;DHT22;2994;51.220;4.412;2023-06-10T00:02:20;26.79;38.45
5938;DHT22;2994;51.220;4.412;2023-06-10T00:04:46;26.79;38.52
5938;DHT22;2994;51.220;4.412;2023-06-10T00:07:12;26.77;38.35
5938;DHT22;2994;51.220;4.412;2023-06-10T00:09:38;26.76;38.89
5938;DHT22;2994;51.220;4.412;2023-06-10T00:12:08;26.73;38.53
5938;DHT22;2994;51.220;4.412;2023-06-10T00:14:39;26.73;38.86
5938;DHT22;2994;51.220;4.412;2023-06-10T00:17:05;26.72;38.98
5938;DHT22;2994;51.220;4.412;2023-06-10T00:19:34;26.69;38.39
5938;DHT22;2994;51.220;4.412;2023-06-10T00:22:00;26.68;38.75
5938;DHT22;2994;51.220;4.412;2023-06-10T00:24:25;26.66;39.06
5938;DHT22;2994;51.220;4.412;2023-06-10T00:26:51;26.65;38.96
5938;DHT22;2994;51.220;4.412;2023-06-10T00:29:16;26.64;39.68
5938;DHT22;2994;51.220;4.412;2023-06-10T00:31:42;26.64;39.13
5938;DHT22;2994;51.220;4.412;2023-06-10T00:34:08;26.62;39.64
5938;DHT22;2994;51.220;4.412;2023-06-10T00:36:33;26.57;39.65
5938;DHT22;2994;51.220;4.412;2023-06-10T00:38:59;26.57;39.73
5938;DHT22;2994;51.220;4.412;2023-06-10T00:41:25;26.54;39.28
5938;DHT22;2994;51.220;4.412;2023-06-10T00:43:54;26.52;39.49
5938;DHT22;2994;51.220;4.412;2023-06-10T00:46:23;26.51;40.30
5938;DHT22;2994;51.220;4.412;2023-06-10T00:48:50;26.50;39.89
5938;DHT22;2994;51.220;4.412;2023-06-10T00:51:16;26.47;39.91
5938;DHT22;2994;51.220;4.412;2023-06-10T00:53:42;26.47;40.17
5938;DHT22;2994;51.220;4.412;2023-06-10T00:56:08;26.41;40.55
5938;DHT22;2994;51.220;4.412;2023-06-10T00:58:34;26.40;40.61
5938;DHT22;2994;51.220;4.412;2023-06-10T01:01:00;26.38;39.86
5938;DHT22;2994;51.220;4.412;2023-06-10T01:03:25;26.37;39.90
5938;DHT22;2994;51.220;4.412;2023-06-10T01:06:08;26.35;40.78
5938;DHT22;2994;51.220;4.412;2023-06-10T01:08:52;26.32;40.59
5938;DHT22;2994;51.220;4.412;2023-06-10T01:11:23;26.27;40.41
5938;DHT22;2994;51.220;4.412;2023-06-10T01:13:50;26.24;40.88
5938;DHT22;2994;51.220;4.412;2023-06-10T01:16:18;26.22;41.16
5938;DHT22;2994;51.220;4.412;2023-06-10T01:18:44;26.21;40.76
5938;DHT22;2994;51.220;4.412;2023-06-10T01:21:13;26.18;40.59
5938;DHT22;2994;51.220;4.412;2023-06-10T01:23:39;26.13;41.28
5938;DHT22;2994;51.220;4.412;2023-06-10T01:26:09;26.12;41.13
5938;DHT22;2994;51.220;4.412;2023-06-10T01:28:48;26.11;41.59
5938;DHT22;2994;51.220;4.412;2023-06-10T01:33:59;26.06;41.87
5938;DHT22;2994;51.220;4.412;2023-06-10T01:36:25;26.03;41.99
5938;DHT22;2994;51.220;4.412;2023-06-10T01:38:53;26.01;41.87
5938;DHT22;2994;51.220;4.412;2023-06-10T01:41:19;25.98;42.03
5938;DHT22;2994;51.220;4.412;2023-06-10T01:43:47;25.97;42.26
5938;DHT22;2994;51.220;4.412;2023-06-10T01:46:13;25.96;42.39
5938;DHT22;2994;51.220;4.412;2023-06-10T01:48:39;25.90;42.74
5938;DHT22;2994;51.220;4.412;2023-06-10T01:51:05;25.87;42.51
5938;DHT22;2994;51.220;4.412;2023-06-10T01:53:30;25.87;42.32
5938;DHT22;2994;51.220;4.412;2023-06-10T01:55:56;25.82;42.74
5938;DHT22;2994;51.220;4.412;2023-06-10T01:58:21;25.81;42.55
5938;DHT22;2994;51.220;4.412;2023-06-10T02:00:47;25.79;42.56
5938;DHT22;2994;51.220;4.412;2023-06-10T02:03:12;25.79;42.97
5938;DHT22;2994;51.220;4.412;2023-06-10T02:05:38;25.75;42.59
5938;DHT22;2994;51.220;4.412;2023-06-10T02:08:03;25.71;42.73
5938;DHT22;2994;51.220;4.412;2023-06-10T02:10:29;25.69;43.26
5938;DHT22;2994;51.220;4.412;2023-06-10T02:12:54;25.66;42.97
5938;DHT22;2994;51.220;4.412;2023-06-10T02:15:20;25.64;43.42
5938;DHT22;2994;51.220;4.412;2023-06-10T02:17:45;25.62;43.30
5938;DHT22;2994;51.220;4.412;2023-06-10T02:20:11;25.62;43.65
5938;DHT22;2994;51.220;4.412;2023-06-10T02:22:37;25.59;43.44
5938;DHT22;2994;51.220;4.412;2023-06-10T02:25:03;25.57;43.23
5938;DHT22;2994;51.220;4.412;2023-06-10T02:27:29;25.56;43.77
5938;DHT22;2994;51.220;4.412;2023-06-10T02:29:56;25.53;43.53
5938;DHT22;2994;51.220;4.412;2023-06-10T02:32:21;25.51;44.02
5938;DHT22;2994;51.220;4.412;2023-06-10T02:34:47;25.50;43.90
5938;DHT22;2994;51.220;4.412;2023-06-10T02:37:14;25.47;43.65
5938;DHT22;2994;51.220;4.412;2023-06-10T02:39:39;25.45;43.86
5938;DHT22;2994;51.220;4.412;2023-06-10T02:42:05;25.44;43.80
5938;DHT22;2994;51.220;4.412;2023-06-10T02:44:31;25.42;43.82
5938;DHT22;2994;51.220;4.412;2023-06-10T02:46:57;25.38;44.36
5938;DHT22;2994;51.220;4.412;2023-06-10T02:49:22;25.35;44.51
5938;DHT22;2994;51.220;4.412;2023-06-10T02:51:48;25.32;44.02
5938;DHT22;2994;51.220;4.412;2023-06-10T02:54:13;25.29;43.99
5938;DHT22;2994;51.220;4.412;2023-06-10T02:56:38;25.25;44.49
5938;DHT22;2994;51.220;4.412;2023-06-10T02:59:07;25.22;44.32
5938;DHT22;2994;51.220;4.412;2023-06-10T03:01:33;25.21;43.99
5938;DHT22;2994;51.220;4.412;2023-06-10T03:04:01;25.20;44.61
5938;DHT22;2994;51.220;4.412;2023-06-10T03:06:27;25.17;44.48
5938;DHT22;2994;51.220;4.412;2023-06-10T03:08:53;25.15;44.33
5938;DHT22;2994;51.220;4.412;2023-06-10T03:11:19;25.13;44.22
5938;DHT22;2994;51.220;4.412;2023-06-10T03:13:44;25.09;44.42
5938;DHT22;2994;51.220;4.412;2023-06-10T03:16:10;25.09;44.91
5938;DHT22;2994;51.220;4.412;2023-06-10T03:18:37;25.07;45.09
5938;DHT22;2994;51.220;4.412;2023-06-10T03:21:03;25.04;44.98
5938;DHT22;2994;51.220;4.412;2023-06-10T03:23:28;25.03;44.82
5938;DHT22;2994;51.220;4.412;2023-06-10T03:25:54;25.01;45.03
5938;DHT22;2994;51.220;4.412;2023-06-10T03:28:22;24.99;45.26
5938;DHT22;2994;51.220;4.412;2023-06-10T03:30:48;24.95;45.33
5938;DHT22;2994;51.220;4.412;2023-06-10T03:33:13;24.93;45.50
5938;DHT22;2994;51.220;4.412;2023-06-10T03:35:39;24.93;45.79
5938;DHT22;2994;51.220;4.412;2023-06-10T03:38:05;24.90;45.62
5938;DHT22;2994;51.220;4.412;2023-06-10T03:40:31;24.88;45.72
5938;DHT22;2994;51.220;4.412;2023-06-10T03:42:57;24.84;45.25
5938;DHT22;2994;51.220;4.412;2023-06-10T03:45:22;24.84;45.60
5938;DHT22;2994;51.220;4.412;2023-06-10T03:47:49;24.79;45.34
5938;DHT22;2994;51.220;4.412;2023-06-10T03:50:15;24.77;45.41
5938;DHT22;2994;51.220;4.412;2023-06-10T03:52:41;24.74;45.93
5938;DHT22;2994;51.220;4.412;2023-06-10T03:55:07;24.74;46.12
5938;DHT22;2994;51.220;4.412;2023-06-10T03:57:32;24.71;45.90
5938;DHT22;2994;51.220;4.412;2023-06-10T03:59:58;24.71;45.83
5938;DHT22;2994;51.220;4.412;2023-06-10T04:02:23;24.68;46.40
5938;DHT22;2994;51.220;4.412;2023-06-10T04:04:49;24.66;46.50
5938;DHT22;2994;51.220;4.412;2023-06-10T04:07:16;24.63;46.69
5938;DHT22;2994;51.220;4.412;2023-06-10T04:09:42;24.60;46.71
5938;DHT22;2994;51.220;4.412;2023-06-10T04:12:08;24.57;46.61
5938;DHT22;2994;51.220;4.412;2023-06-10T04:14:35;24.55;46.78
5938;DHT22;2994;51.220;4.412;2023-06-10T04:17:05;24.49;46.91
5938;DHT22;2994;51.220;4.412;2023-06-10T04:19:33;24.50;46.93
5938;DHT22;2994;51.220;4.412;2023-06-10T04:22:00;24.47;46.60
5938;DHT22;2994;51.220;4.412;2023-06-10T04:24:26;24.45;47.13
5938;DHT22;2994;51.220;4.412;2023-06-10T04:26:51;24.44;46.82
5938;DHT22;2994;51.220;4.412;2023-06-10T04:29:17;24.44;47.28
5938;DHT22;2994;51.220;4.412;2023-06-10T04:31:42;24.43;46.89
5938;DHT22;2994;51.220;4.412;2023-06-10T04:34:08;24.42;46.74
5938;DHT22;2994;51.220;4.412;2023-06-10T04:36:33;24.43;47.02
5938;DHT22;2994;51.220;4.412;2023-06-10T04:38:58;24.43;46.96
5938;DHT22;2994;51.220;4.412;2023-06-10T04:41:24;24.43;47.43
5938;DHT22;2994;51.220;4.412;2023-06-10T04:43:51;24.43;47.61
5938;DHT22;2994;51.220;4.412;2023-06-10T04:46:16;24.42;47.19
5938;DHT22;2994;51.220;4.412;2023-06-10T04:48:42;24.36;47.09
5938;DHT22;2994;51.220;4.412;2023-06-10T04:51:07;24.39;47.44
5938;DHT22;2994;51.220;4.412;2023-06-10T04:53:33;24.41;47.41
5938;DHT22;2994;51.220;4.412;2023-06-10T04:55:58;24.41;47.13
5938;DHT22;2994;51.220;4.412;2023-06-10T04:58:23;24.41;47.52
5938;DHT22;2994;51.220;4.412;2023-06-10T05:00:49;24.43;47.33
5938;DHT22;2994;51.220;4.412;2023-06-10T05:03:15;24.43;47.15
5938;DHT22;2994;51.220;4.412;2023-06-10T05:05:40;24.44;47.70
5938;DHT22;2994;51.220;4.412;2023-06-10T05:08:06;24.44;47.06
5938;DHT22;2994;51.220;4.412;2023-06-10T05:10:32;24.44;46.89
5938;DHT22;2994;51.220;4.412;2023-06-10T05:12:59;24.36;46.95
5938;DHT22;2994;51.220;4.412;2023-06-10T05:15:24;24.39;46.81
5938;DHT22;2994;51.220;4.412;2023-06-10T05:17:50;24.41;47.09
5938;DHT22;2994;51.220;4.412;2023-06-10T05:20:15;24.40;47.14
5938;DHT22;2994;51.220;4.412;2023-06-10T05:22:41;24.43;47.32
5938;DHT22;2994;51.220;4.412;2023-06-10T05:25:07;24.43;47.41
5938;DHT22;2994;51.220;4.412;2023-06-10T05:27:32;24.45;46.99
5938;DHT22;2994;51.220;4.412;2023-06-10T05:29:58;24.41;46.93
5938;DHT22;2994;51.220;4.412;2023-06-10T05:32:23;24.45;46.82
5938;DHT22;2994;51.220;4.412;2023-06-10T05:34:48;24.48;47.23
5938;DHT22;2994;51.220;4.412;2023-06-10T05:37:14;24.45;47.34
5938;DHT22;2994;51.220;4.412;2023-06-10T05:39:39;24.49;47.10
5938;DHT22;2994;51.220;4.412;2023-06-10T05:42:07;24.51;46.79
5938;DHT22;2994;51.220;4.412;2023-06-10T05:44:33;24.57;46.61
5938;DHT22;2994;51.220;4.412;2023-06-10T05:46:58;24.54;47.02
5938;DHT22;2994;51.220;4.412;2023-06-10T05:49:24;24.56;46.98
5938;DHT22;2994;51.220;4.412;2023-06-10T05:51:49;24.61;47.22
5938;DHT22;2994;51.220;4.412;2023-06-10T05:54:15;24.63;46.89
5938;DHT22;2994;51.220;4.412;2023-06-10T05:56:40;24.65;47.38
5938;DHT22;2994;51.220;4.412;2023-06-10T05:59:06;24.71;47.14
5938;DHT22;2994;51.220;4.412;2023-06-10T06:01:31;24.72;47.25
5938;DHT22;2994;51.220;4.412;2023-06-10T06:03:57;24.74;46.60
5938;DHT22;2994;51.220;4.412;2023-06-10T06:06:22;24.77;46.44
5938;DHT22;2994;51.220;4.412;2023-06-10T06:08:48;24.82;46.73
5938;DHT22;2994;51.220;4.412;2023-06-10T06:11:14;24.57;46.80
5938;DHT22;2994;51.220;4.412;2023-06-10T06:13:39;24.78;46.31
5938;DHT22;2994;51.220;4.412;2023-06-10T06:16:06;24.64;46.38
5938;DHT22;2994;51.220;4.412;2023-06-10T06:18:32;24.73;46.09
5938;DHT22;2994;51.220;4.412;2023-06-10T06:20:57;24.82;45.90
5938;DHT22;2994;51.220;4.412;2023-06-10T06:23:23;24.78;46.07
5938;DHT22;2994;51.220;4.412;2023-06-10T06:25:48;24.75;46.03
5938;DHT22;2994;51.220;4.412;2023-06-10T06:28:13;24.88;46.17
5938;DHT22;2994;51.220;4.412;2023-06-10T06:30:39;24.98;46.00
5938;DHT22;2994;51.220;4.412;2023-06-10T06:33:05;24.98;45.61
5938;DHT22;2994;51.220;4.412;2023-06-10T06:35:32;25.07;45.83
5938;DHT22;2994;51.220;4.412;2023-06-10T06:37:59;25.07;45.53
5938;DHT22;2994;51.220;4.412;2023-06-10T06:40:24;25.17;45.39
5938;DHT22;2994;51.220;4.412;2023-06-10T06:42:50;25.18;45.45
5938;DHT22;2994;51.220;4.412;2023-06-10T06:45:15;25.23;45.43
5938;DHT22;2994;51.220;4.412;2023-06-10T06:47:41;25.34;45.64
5938;DHT22;2994;51.220;4.412;2023-06-10T06:50:06;25.32;45.19
5938;DHT22;2994;51.220;4.412;2023-06-10T06:52:32;25.35;45.88
5938;DHT22;2994;51.220;4.412;2023-06-10T06:54:57;25.39;44.86
5938;DHT22;2994;51.220;4.412;2023-06-10T06:57:23;25.51;46.25
5938;DHT22;2994;51.220;4.412;2023-06-10T06:59:48;25.60;45.93
5938;DHT22;2994;51.220;4.412;2023-06-10T07:02:14;25.73;44.38
5938;DHT22;2994;51.220;4.412;2023-06-10T07:04:39;25.73;44.53
5938;DHT22;2994;51.220;4.412;2023-06-10T07:07:07;25.82;44.72
5938;DHT22;2994;51.220;4.412;2023-06-10T07:09:33;25.82;44.97
5938;DHT22;2994;51.220;4.412;2023-06-10T07:11:58;25.88;44.45
5938;DHT22;2994;51.220;4.412;2023-06-10T07:14:24;25.96;44.70
5938;DHT22;2994;51.220;4.412;2023-06-10T07:16:50;25.95;44.43
5938;DHT22;2994;51.220;4.412;2023-06-10T07:19:15;26.01;43.35
5938;DHT22;2994;51.220;4.412;2023-06-10T07:21:41;26.02;43.32
5938;DHT22;2994;51.220;4.412;2023-06-10T07:24:06;26.10;43.41
5938;DHT22;2994;51.220;4.412;2023-06-10T07:26:32;26.10;43.00
5938;DHT22;2994;51.220;4.412;2023-06-10T07:28:57;26.19;42.54
5938;DHT22;2994;51.220;4.412;2023-06-10T07:31:23;26.25;42.71
5938;DHT22;2994;51.220;4.412;2023-06-10T07:33:50;26.24;43.16
5938;DHT22;2994;51.220;4.412;2023-06-10T07:36:15;26.31;43.30
5938;DHT22;2994;51.220;4.412;2023-06-10T07:38:41;26.36;43.26
5938;DHT22;2994;51.220;4.412;2023-06-10T07:41:08;26.39;43.34
5938;DHT22;2994;51.220;4.412;2023-06-10T07:43:33;26.52;42.56
5938;DHT22;2994;51.220;4.412;2023-06-10T07:45:59;26.58;41.96
5938;DHT22;2994;51.220;4.412;2023-06-10T07:48:25;26.68;41.75
5938;DHT22;2994;51.220;4.412;2023-06-10T07:50:51;26.71;42.61
5938;DHT22;2994;51.220;4.412;2023-06-10T07:53:17;26.79;41.63
5938;DHT22;2994;51.220;4.412;2023-06-10T07:55:42;26.92;40.67
5938;DHT22;2994;51.220;4.412;2023-06-10T07:58:08;26.97;40.36
5938;DHT22;2994;51.220;4.412;2023-06-10T08:00:33;26.94;41.05
5938;DHT22;2994;51.220;4.412;2023-06-10T08:02:59;26.98;41.16
5938;DHT22;2994;51.220;4.412;2023-06-10T08:05:24;27.09;40.31
5938;DHT22;2994;51.220;4.412;2023-06-10T08:07:51;27.19;40.20
5938;DHT22;2994;51.220;4.412;2023-06-10T08:10:17;27.29;39.87
5938;DHT22;2994;51.220;4.412;2023-06-10T08:12:42;27.17;40.30
5938;DHT22;2994;51.220;4.412;2023-06-10T08:15:08;27.32;40.71
5938;DHT22;2994;51.220;4.412;2023-06-10T08:17:33;27.40;40.39
5938;DHT22;2994;51.220;4.412;2023-06-10T08:20:00;27.51;40.34
5938;DHT22;2994;51.220;4.412;2023-06-10T08:22:26;27.63;41.08
5938;DHT22;2994;51.220;4.412;2023-06-10T08:24:52;27.68;41.36
5938;DHT22;2994;51.220;4.412;2023-06-10T08:27:17;27.71;40.91
5938;DHT22;2994;51.220;4.412;2023-06-10T08:29:43;27.81;40.87
5938;DHT22;2994;51.220;4.412;2023-06-10T08:32:08;27.88;40.10
5938;DHT22;2994;51.220;4.412;2023-06-10T08:34:34;27.95;39.75
5938;DHT22;2994;51.220;4.412;2023-06-10T08:37:03;28.02;39.30
5938;DHT22;2994;51.220;4.412;2023-06-10T08:39:29;28.02;40.49
5938;DHT22;2994;51.220;4.412;2023-06-10T08:42:13;28.01;38.36
5938;DHT22;2994;51.220;4.412;2023-06-10T08:44:43;27.78;38.91
5938;DHT22;2994;51.220;4.412;2023-06-10T08:47:14;28.13;37.90
5938;DHT22;2994;51.220;4.412;2023-06-10T08:49:45;28.09;37.53
5938;DHT22;2994;51.220;4.412;2023-06-10T08:52:16;28.35;38.40
5938;DHT22;2994;51.220;4.412;2023-06-10T08:54:57;28.48;37.51
5938;DHT22;2994;51.220;4.412;2023-06-10T08:57:25;28.55;36.36
5938;DHT22;2994;51.220;4.412;2023-06-10T08:59:52;28.60;36.21
5938;DHT22;2994;51.220;4.412;2023-06-10T09:02:19;28.73;35.71
5938;DHT22;2994;51.220;4.412;2023-06-10T09:04:46;28.65;35.47
5938;DHT22;2994;51.220;4.412;2023-06-10T09:07:14;28.80;35.13
5938;DHT22;2994;51.220;4.412;2023-06-10T09:09:42;29.04;33.99
5938;DHT22;2994;51.220;4.412;2023-06-10T09:12:08;28.87;34.49
5938;DHT22;2994;51.220;4.412;2023-06-10T09:14:33;29.13;34.08
5938;DHT22;2994;51.220;4.412;2023-06-10T09:16:59;29.14;33.54
5938;DHT22;2994;51.220;4.412;2023-06-10T09:19:25;29.27;34.88
5938;DHT22;2994;51.220;4.412;2023-06-10T09:21:52;29.41;34.04
5938;DHT22;2994;51.220;4.412;2023-06-10T09:24:18;29.43;33.83
5938;DHT22;2994;51.220;4.412;2023-06-10T09:26:43;29.51;33.65
5938;DHT22;2994;51.220;4.412;2023-06-10T09:29:09;29.63;34.19
5938;DHT22;2994;51.220;4.412;2023-06-10T09:31:38;29.76;32.41
5938;DHT22;2994;51.220;4.412;2023-06-10T09:34:10;29.77;32.47
5938;DHT22;2994;51.220;4.412;2023-06-10T09:36:38;29.91;32.12
5938;DHT22;2994;51.220;4.412;2023-06-10T09:39:04;30.02;31.34
5938;DHT22;2994;51.220;4.412;2023-06-10T09:41:41;30.03;32.45
5938;DHT22;2994;51.220;4.412;2023-06-10T09:44:17;30.06;32.51
5938;DHT22;2994;51.220;4.412;2023-06-10T09:46:46;30.10;32.12
5938;DHT22;2994;51.220;4.412;2023-06-10T09:49:12;30.18;31.91
5938;DHT22;2994;51.220;4.412;2023-06-10T09:51:37;30.50;30.60
5938;DHT22;2994;51.220;4.412;2023-06-10T09:54:03;30.47;32.13
5938;DHT22;2994;51.220;4.412;2023-06-10T09:56:33;30.56;30.16
5938;DHT22;2994;51.220;4.412;2023-06-10T09:58:59;30.60;29.74
5938;DHT22;2994;51.220;4.412;2023-06-10T10:01:24;30.65;30.15
5938;DHT22;2994;51.220;4.412;2023-06-10T10:03:50;30.62;31.07
5938;DHT22;2994;51.220;4.412;2023-06-10T10:06:17;30.77;30.15
5938;DHT22;2994;51.220;4.412;2023-06-10T10:08:45;30.81;29.79
5938;DHT22;2994;51.220;4.412;2023-06-10T10:11:11;30.87;29.38
5938;DHT22;2994;51.220;4.412;2023-06-10T10:13:37;31.00;29.97
5938;DHT22;2994;51.220;4.412;2023-06-10T10:16:11;31.02;29.19
5938;DHT22;2994;51.220;4.412;2023-06-10T10:18:43;31.15;26.94
5938;DHT22;2994;51.220;4.412;2023-06-10T10:21:12;31.10;27.16
5938;DHT22;2994;51.220;4.412;2023-06-10T10:23:52;31.05;27.35
5938;DHT22;2994;51.220;4.412;2023-06-10T10:26:21;31.12;27.63
5938;DHT22;2994;51.220;4.412;2023-06-10T10:29:07;31.24;26.87
5938;DHT22;2994;51.220;4.412;2023-06-10T10:31:35;31.43;26.84
5938;DHT22;2994;51.220;4.412;2023-06-10T10:34:07;31.30;27.98
5938;DHT22;2994;51.220;4.412;2023-06-10T10:36:34;31.23;27.40
5938;DHT22;2994;51.220;4.412;2023-06-10T10:39:01;31.35;26.89
5938;DHT22;2994;51.220;4.412;2023-06-10T10:41:30;31.68;25.20
5938;DHT22;2994;51.220;4.412;2023-06-10T10:43:56;31.66;26.37
5938;DHT22;2994;51.220;4.412;2023-06-10T10:46:22;31.54;26.33
5938;DHT22;2994;51.220;4.412;2023-06-10T10:48:52;31.52;27.00
5938;DHT22;2994;51.220;4.412;2023-06-10T10:51:18;31.55;26.80
5938;DHT22;2994;51.220;4.412;2023-06-10T10:53:44;31.84;24.53
5938;DHT22;2994;51.220;4.412;2023-06-10T10:56:14;31.76;26.04
5938;DHT22;2994;51.220;4.412;2023-06-10T10:58:40;31.76;25.88
5938;DHT22;2994;51.220;4.412;2023-06-10T11:01:13;31.90;25.51
5938;DHT22;2994;51.220;4.412;2023-06-10T11:03:44;31.85;26.63
5938;DHT22;2994;51.220;4.412;2023-06-10T11:06:14;31.99;23.38
5938;DHT22;2994;51.220;4.412;2023-06-10T11:11:24;32.14;23.50
5938;DHT22;2994;51.220;4.412;2023-06-10T11:16:41;32.18;23.33
5938;DHT22;2994;51.220;4.412;2023-06-10T11:19:07;32.23;24.00
5938;DHT22;2994;51.220;4.412;2023-06-10T11:24:21;32.35;25.23
5938;DHT22;2994;51.220;4.412;2023-06-10T11:26:47;32.34;23.79
5938;DHT22;2994;51.220;4.412;2023-06-10T11:29:14;32.56;24.55
5938;DHT22;2994;51.220;4.412;2023-06-10T11:31:44;32.57;23.49
5938;DHT22;2994;51.220;4.412;2023-06-10T11:34:11;32.77;24.24
5938;DHT22;2994;51.220;4.412;2023-06-10T11:36:40;33.00;23.94
5938;DHT22;2994;51.220;4.412;2023-06-10T11:39:07;33.21;21.47
5938;DHT22;2994;51.220;4.412;2023-06-10T11:41:34;33.03;20.89
5938;DHT22;2994;51.220;4.412;2023-06-10T11:44:06;32.93;21.73
5938;DHT22;2994;51.220;4.412;2023-06-10T11:46:33;33.02;21.11
5938;DHT22;2994;51.220;4.412;2023-06-10T11:49:00;33.12;20.97
5938;DHT22;2994;51.220;4.412;2023-06-10T11:51:27;33.04;20.89
5938;DHT22;2994;51.220;4.412;2023-06-10T11:53:54;33.18;20.65
5938;DHT22;2994;51.220;4.412;2023-06-10T11:56:27;33.35;21.02
5938;DHT22;2994;51.220;4.412;2023-06-10T12:01:21;33.56;20.43
5938;DHT22;2994;51.220;4.412;2023-06-10T12:04:00;33.73;20.00
5938;DHT22;2994;51.220;4.412;2023-06-10T12:06:26;33.62;22.56
5938;DHT22;2994;51.220;4.412;2023-06-10T12:08:53;33.89;20.61
5938;DHT22;2994;51.220;4.412;2023-06-10T12:11:20;33.96;19.45
5938;DHT22;2994;51.220;4.412;2023-06-10T12:13:47;33.95;20.20
5938;DHT22;2994;51.220;4.412;2023-06-10T12:16:16;33.96;19.89
5938;DHT22;2994;51.220;4.412;2023-06-10T12:18:43;34.23;19.14
5938;DHT22;2994;51.220;4.412;2023-06-10T12:21:20;34.48;20.21
5938;DHT22;2994;51.220;4.412;2023-06-10T12:24:03;33.87;19.57
5938;DHT22;2994;51.220;4.412;2023-06-10T12:26:41;34.25;20.48
5938;DHT22;2994;51.220;4.412;2023-06-10T12:31:56;34.38;21.26
5938;DHT22;2994;51.220;4.412;2023-06-10T12:34:29;34.50;20.31
5938;DHT22;2994;51.220;4.412;2023-06-10T12:36:55;34.07;18.89
5938;DHT22;2994;51.220;4.412;2023-06-10T12:39:21;34.18;18.82
5938;DHT22;2994;51.220;4.412;2023-06-10T12:41:51;34.55;19.63
5938;DHT22;2994;51.220;4.412;2023-06-10T12:44:16;34.74;18.40
5938;DHT22;2994;51.220;4.412;2023-06-10T12:46:42;34.95;19.19
5938;DHT22;2994;51.220;4.412;2023-06-10T12:49:07;35.03;18.76
5938;DHT22;2994;51.220;4.412;2023-06-10T12:51:32;35.34;19.12
5938;DHT22;2994;51.220;4.412;2023-06-10T12:54:00;35.23;18.81
5938;DHT22;2994;51.220;4.412;2023-06-10T12:56:25;35.29;18.44
5938;DHT22;2994;51.220;4.412;2023-06-10T12:58:50;35.56;18.06
5938;DHT22;2994;51.220;4.412;2023-06-10T13:01:16;35.20;18.63
5938;DHT22;2994;51.220;4.412;2023-06-10T13:03:42;34.73;18.29
5938;DHT22;2994;51.220;4.412;2023-06-10T13:06:07;35.41;17.92
5938;DHT22;2994;51.220;4.412;2023-06-10T13:08:32;35.73;16.99
5938;DHT22;2994;51.220;4.412;2023-06-10T13:10:58;35.86;16.83
5938;DHT22;2994;51.220;4.412;2023-06-10T13:13:24;36.24;16.96
5938;DHT22;2994;51.220;4.412;2023-06-10T13:15:51;36.34;17.54
5938;DHT22;2994;51.220;4.412;2023-06-10T13:18:17;36.40;16.38
5938;DHT22;2994;51.220;4.412;2023-06-10T13:20:44;36.47;15.77
5938;DHT22;2994;51.220;4.412;2023-06-10T13:23:09;36.62;15.29
5938;DHT22;2994;51.220;4.412;2023-06-10T13:25:35;36.70;15.68
5938;DHT22;2994;51.220;4.412;2023-06-10T13:28:00;36.71;15.31
5938;DHT22;2994;51.220;4.412;2023-06-10T13:30:26;36.83;15.48
5938;DHT22;2994;51.220;4.412;2023-06-10T13:32:51;37.05;15.79
5938;DHT22;2994;51.220;4.412;2023-06-10T13:35:17;37.01;15.52
5938;DHT22;2994;51.220;4.412;2023-06-10T13:37:42;37.16;14.80
5938;DHT22;2994;51.220;4.412;2023-06-10T13:40:08;37.38;14.34
5938;DHT22;2994;51.220;4.412;2023-06-10T13:42:35;37.28;14.53
5938;DHT22;2994;51.220;4.412;2023-06-10T13:45:02;37.03;15.26
5938;DHT22;2994;51.220;4.412;2023-06-10T13:47:27;37.16;15.55
5938;DHT22;2994;51.220;4.412;2023-06-10T13:49:53;37.44;15.23
5938;DHT22;2994;51.220;4.412;2023-06-10T13:52:18;37.22;14.84
5938;DHT22;2994;51.220;4.412;2023-06-10T13:54:44;36.89;14.42
5938;DHT22;2994;51.220;4.412;2023-06-10T13:57:10;36.76;14.74
5938;DHT22;2994;51.220;4.412;2023-06-10T13:59:36;37.30;14.82
5938;DHT22;2994;51.220;4.412;2023-06-10T14:02:01;37.19;15.89
5938;DHT22;2994;51.220;4.412;2023-06-10T14:04:27;37.43;14.60
5938;DHT22;2994;51.220;4.412;2023-06-10T14:06:52;37.49;15.04
5938;DHT22;2994;51.220;4.412;2023-06-10T14:09:18;37.61;15.52
5938;DHT22;2994;51.220;4.412;2023-06-10T14:11:44;37.65;15.59
5938;DHT22;2994;51.220;4.412;2023-06-10T14:14:09;37.66;15.14
5938;DHT22;2994;51.220;4.412;2023-06-10T14:16:35;37.90;13.54
5938;DHT22;2994;51.220;4.412;2023-06-10T14:19:00;37.52;15.31
5938;DHT22;2994;51.220;4.412;2023-06-10T14:21:26;37.84;15.41
5938;DHT22;2994;51.220;4.412;2023-06-10T14:23:51;38.03;14.17
5938;DHT22;2994;51.220;4.412;2023-06-10T14:26:18;38.14;14.58
5938;DHT22;2994;51.220;4.412;2023-06-10T14:28:44;38.20;13.58
5938;DHT22;2994;51.220;4.412;2023-06-10T14:31:09;38.31;13.74
5938;DHT22;2994;51.220;4.412;2023-06-10T14:33:36;38.38;13.49
5938;DHT22;2994;51.220;4.412;2023-06-10T14:36:01;38.52;13.79
5938;DHT22;2994;51.220;4.412;2023-06-10T14:38:27;38.44;13.85
5938;DHT22;2994;51.220;4.412;2023-06-10T14:40:52;38.21;14.42
5938;DHT22;2994;51.220;4.412;2023-06-10T14:43:18;38.11;13.21
5938;DHT22;2994;51.220;4.412;2023-06-10T14:45:43;37.55;14.03
5938;DHT22;2994;51.220;4.412;2023-06-10T14:48:10;37.61;14.70
5938;DHT22;2994;51.220;4.412;2023-06-10T14:50:36;37.05;14.28
5938;DHT22;2994;51.220;4.412;2023-06-10T14:53:02;36.59;14.68
5938;DHT22;2994;51.220;4.412;2023-06-10T14:55:27;36.18;15.52
5938;DHT22;2994;51.220;4.412;2023-06-10T14:57:53;36.76;15.90
5938;DHT22;2994;51.220;4.412;2023-06-10T15:00:18;37.18;16.16
5938;DHT22;2994;51.220;4.412;2023-06-10T15:02:49;37.46;14.87
5938;DHT22;2994;51.220;4.412;2023-06-10T15:05:15;37.74;14.07
5938;DHT22;2994;51.220;4.412;2023-06-10T15:07:44;37.85;13.42
5938;DHT22;2994;51.220;4.412;2023-06-10T15:10:10;37.95;12.53
5938;DHT22;2994;51.220;4.412;2023-06-10T15:12:35;38.21;14.26
5938;DHT22;2994;51.220;4.412;2023-06-10T15:15:01;38.34;13.47
5938;DHT22;2994;51.220;4.412;2023-06-10T15:17:27;38.81;12.43
5938;DHT22;2994;51.220;4.412;2023-06-10T15:19:52;39.25;11.94
5938;DHT22;2994;51.220;4.412;2023-06-10T15:22:18;39.93;11.35
5938;DHT22;2994;51.220;4.412;2023-06-10T15:24:43;41.63;10.75
5938;DHT22;2994;51.220;4.412;2023-06-10T15:27:09;46.50;9.43
5938;DHT22;2994;51.220;4.412;2023-06-10T15:29:35;49.60;6.03
5938;DHT22;2994;51.220;4.412;2023-06-10T15:32:00;51.82;4.94
5938;DHT22;2994;51.220;4.412;2023-06-10T15:34:26;53.63;4.16
5938;DHT22;2994;51.220;4.412;2023-06-10T15:36:51;55.03;4.26
5938;DHT22;2994;51.220;4.412;2023-06-10T15:39:16;55.77;2.76
5938;DHT22;2994;51.220;4.412;2023-06-10T15:41:44;53.78;1.39
5938;DHT22;2994;51.220;4.412;2023-06-10T15:44:09;54.75;3.23
5938;DHT22;2994;51.220;4.412;2023-06-10T15:46:35;56.70;1.58
5938;DHT22;2994;51.220;4.412;2023-06-10T15:49:00;53.91;1.49
5938;DHT22;2994;51.220;4.412;2023-06-10T15:51:25;55.91;2.00
5938;DHT22;2994;51.220;4.412;2023-06-10T15:53:51;53.44;1.19
5938;DHT22;2994;51.220;4.412;2023-06-10T15:56:17;49.87;2.51
5938;DHT22;2994;51.220;4.412;2023-06-10T15:58:42;47.77;5.20
5938;DHT22;2994;51.220;4.412;2023-06-10T16:01:08;46.37;4.83
5938;DHT22;2994;51.220;4.412;2023-06-10T16:03:35;44.35;6.60
5938;DHT22;2994;51.220;4.412;2023-06-10T16:06:01;43.42;7.85
5938;DHT22;2994;51.220;4.412;2023-06-10T16:08:26;42.65;8.79
5938;DHT22;2994;51.220;4.412;2023-06-10T16:10:52;41.86;8.05
5938;DHT22;2994;51.220;4.412;2023-06-10T16:13:17;41.13;8.64
5938;DHT22;2994;51.220;4.412;2023-06-10T16:15:43;40.32;9.34